createdAt,value
2022-08-05T00:02:22.366Z,97242.88
2022-08-05T00:04:55.257Z,97241.44
2022-08-05T00:07:59.034Z,97239.81
2022-08-05T00:10:11.475Z,97241.25
2022-08-05T00:12:48.513Z,97246.97
2022-08-05T00:15:55.953Z,97238.84
2022-08-05T00:18:21.764Z,97235.56
2022-08-05T00:20:50.751Z,97235.97
2022-08-05T00:23:44.659Z,97239.66
2022-08-05T00:26:07.510Z,97235.53
2022-08-05T00:28:35.305Z,97229.63
2022-08-05T00:31:04.272Z,97237.19
2022-08-05T00:34:53.354Z,97229.63
2022-08-05T00:37:09.721Z,97226.59
2022-08-05T00:39:13.545Z,97232.53
2022-08-05T00:41:51.823Z,97233.13
2022-08-05T00:44:31.011Z,97232.72
2022-08-05T00:47:02.096Z,97233.34
2022-08-05T00:49:32.650Z,97235.59
2022-08-05T00:52:11.299Z,97229.88
2022-08-05T00:54:38.862Z,97228.25
2022-08-05T00:57:05.966Z,97222.56
2022-08-05T00:59:34.443Z,97226.22
2022-08-05T01:02:08.911Z,97220.31
2022-08-05T01:04:42.213Z,97223.38
2022-08-05T01:07:13.543Z,97224.38
2022-08-05T01:09:41.862Z,97208.28
2022-08-05T01:12:18.552Z,97210.34
2022-08-05T01:15:05.949Z,97204.59
2022-08-05T01:18:01.459Z,97209.50
2022-08-05T01:21:22.710Z,97217.88
2022-08-05T01:24:14.409Z,97203.00
2022-08-05T01:27:17.947Z,97206.66
2022-08-05T01:29:54.641Z,97208.72
2022-08-05T01:32:27.682Z,97209.06
2022-08-05T01:35:04.130Z,97205.81
2022-08-05T01:37:47.284Z,97199.91
2022-08-05T01:40:18.412Z,97203.78
2022-08-05T01:42:48.142Z,97201.31
2022-08-05T01:45:18.396Z,97202.34
2022-08-05T01:47:49.639Z,97196.63
2022-08-05T01:50:29.684Z,97203.75
2022-08-05T01:53:02.254Z,97199.47
2022-08-05T01:55:36.080Z,97201.31
2022-08-05T01:58:15.231Z,97202.53
2022-08-05T02:00:49.346Z,97202.94
2022-08-05T02:03:31.837Z,97202.13
2022-08-05T02:06:03.590Z,97209.47
2022-08-05T02:08:57.897Z,97215.00
2022-08-05T02:11:33.152Z,97211.09
2022-08-05T02:14:31.847Z,97219.47
2022-08-05T02:17:14.964Z,97213.97
2022-08-05T02:20:20.665Z,97213.97
2022-08-05T02:22:56.651Z,97215.78
2022-08-05T02:25:33.350Z,97212.31
2022-08-05T02:28:10.553Z,97210.66
2022-08-05T02:30:54.666Z,97217.78
2022-08-05T02:33:35.972Z,97212.72
2022-08-05T02:36:13.704Z,97220.03
2022-08-05T02:38:53.546Z,97221.47
2022-08-05T02:41:28.691Z,97215.34
2022-08-05T02:44:13.519Z,97213.94
2022-08-05T02:47:00.014Z,97220.44
2022-08-05T02:49:36.751Z,97213.69
2022-08-05T02:52:29.978Z,97222.06
2022-08-05T02:55:01.980Z,97212.69
2022-08-05T02:58:10.667Z,97203.94
2022-08-05T03:00:20.421Z,97203.94
2022-08-05T03:02:48.881Z,97203.31
2022-08-05T03:05:17.019Z,97203.31
2022-08-05T03:08:01.827Z,97197.38
2022-08-05T03:10:35.833Z,97196.38
2022-08-05T03:13:10.890Z,97192.06
2022-08-05T03:15:45.939Z,97206.34
2022-08-05T03:18:14.213Z,97191.47
2022-08-05T03:20:48.641Z,97190.66
2022-08-05T03:23:16.146Z,97189.84
2022-08-05T03:26:30.856Z,97190.03
2022-08-05T03:28:31.567Z,97196.34
2022-08-05T03:31:03.535Z,97197.59
2022-08-05T03:33:49.330Z,97203.88
2022-08-05T03:36:18.380Z,97281.91
2022-08-05T03:38:58.067Z,97259.13
2022-08-05T03:41:24.983Z,97286.88
2022-08-05T03:44:08.167Z,97309.75
2022-08-05T03:46:37.588Z,97269.81
2022-08-05T03:49:04.791Z,97277.19
2022-08-05T03:52:38.329Z,97267.03
2022-08-05T03:56:04.782Z,97267.84
2022-08-05T03:57:41.662Z,97273.53
2022-08-05T04:00:16.121Z,97271.53
2022-08-05T04:02:58.344Z,97264.78
2022-08-05T04:05:33.643Z,97269.47
2022-08-05T04:08:14.532Z,97269.28
2022-08-05T04:10:56.594Z,97272.13
2022-08-05T04:13:25.555Z,97267.38
2022-08-05T04:16:04.291Z,97258.41
2022-08-05T04:18:32.374Z,97263.72
2022-08-05T04:21:03.874Z,97258.00
2022-08-05T04:24:04.715Z,97256.56
2022-08-05T04:26:18.502Z,97265.75
2022-08-05T04:28:50.975Z,97279.22
2022-08-05T04:31:19.961Z,97288.78
2022-08-05T04:34:18.975Z,97289.81
2022-08-05T04:36:45.455Z,97293.06
2022-08-05T04:39:13.453Z,97272.69
2022-08-05T04:41:40.515Z,97276.75
2022-08-05T04:44:09.318Z,97281.66
2022-08-05T04:46:38.581Z,97282.28
2022-08-05T04:49:14.406Z,97282.47
2022-08-05T04:51:43.962Z,97276.00
2022-08-05T04:54:12.197Z,97281.31
2022-08-05T04:56:39.531Z,97280.69
2022-08-05T04:59:22.042Z,97279.28
2022-08-05T05:02:07.415Z,97280.09
2022-08-05T05:04:43.830Z,97281.31
2022-08-05T05:07:11.869Z,97286.41
2022-08-05T05:09:42.906Z,97289.06
2022-08-05T05:12:11.624Z,97290.06
2022-08-05T05:14:38.614Z,97300.47
2022-08-05T05:17:22.865Z,97296.00
2022-08-05T05:19:49.837Z,97317.44
2022-08-05T05:22:23.613Z,97318.03
2022-08-05T05:24:56.956Z,97323.13
2022-08-05T05:27:44.524Z,97323.13
2022-08-05T05:30:29.445Z,97334.56
2022-08-05T05:33:03.483Z,97338.84
2022-08-05T05:35:38.014Z,97340.88
2022-08-05T05:38:08.981Z,97349.88
2022-08-05T05:40:43.844Z,97353.16
2022-08-05T05:43:16.360Z,97370.53
2022-08-05T05:45:54.702Z,97363.00
2022-08-05T05:48:27.319Z,97364.19
2022-08-05T05:50:54.629Z,97358.06
2022-08-05T05:53:22.571Z,97362.56
2022-08-05T05:55:52.236Z,97366.59
2022-08-05T05:58:31.753Z,97371.06
2022-08-05T06:01:12.228Z,97366.56
2022-08-05T06:04:00.502Z,97361.22
2022-08-05T06:06:31.014Z,97340.72
2022-08-05T06:08:58.700Z,97335.28
2022-08-05T06:11:26.011Z,97350.31
2022-08-05T06:13:54.152Z,97354.28
2022-08-05T06:16:29.496Z,97364.16
2022-08-05T06:19:01.740Z,97377.31
2022-08-05T06:21:37.011Z,97392.66
2022-08-05T06:24:11.312Z,97398.31
2022-08-05T06:26:51.364Z,97416.50
2022-08-05T06:29:25.104Z,97462.19
2022-08-05T06:32:24.889Z,97457.00
2022-08-05T06:34:57.346Z,97446.50
2022-08-05T06:37:58.143Z,97464.25
2022-08-05T06:40:18.409Z,97454.50
2022-08-05T06:42:52.117Z,97450.47
2022-08-05T06:45:45.034Z,97442.34
2022-08-05T06:48:36.626Z,97464.47
2022-08-05T06:50:55.845Z,97484.94
2022-08-05T06:53:28.591Z,97480.44
2022-08-05T06:56:00.590Z,97487.63
2022-08-05T06:58:35.266Z,97502.78
2022-08-05T07:01:06.677Z,97492.72
2022-08-05T07:03:34.598Z,97511.16
2022-08-05T07:06:05.831Z,97508.25
2022-08-05T07:08:47.577Z,97515.44
2022-08-05T07:11:22.635Z,97523.88
2022-08-05T07:14:20.162Z,97532.47
2022-08-05T07:18:02.423Z,97540.22
2022-08-05T07:22:28.504Z,97551.47
2022-08-05T07:25:54.459Z,97552.28
2022-08-05T07:27:58.422Z,97545.78
2022-08-05T07:30:38.472Z,97552.41
2022-08-05T07:33:16.036Z,97545.09
2022-08-05T07:36:05.229Z,97551.66
2022-08-05T07:38:43.561Z,97555.34
2022-08-05T07:42:08.401Z,97561.72
2022-08-05T07:44:14.206Z,97545.88
2022-08-05T07:46:48.476Z,97548.47
2022-08-05T07:49:18.273Z,97550.09
2022-08-05T07:51:53.975Z,97549.16
2022-08-05T07:54:31.305Z,97552.69
2022-08-05T07:57:22.504Z,97556.66
2022-08-05T07:59:52.030Z,97545.53
2022-08-05T08:02:26.651Z,97540.75
2022-08-05T08:04:58.872Z,97540.06
2022-08-05T08:07:28.149Z,97535.72
2022-08-05T08:09:55.634Z,97536.06
2022-08-05T08:12:35.457Z,97540.97
2022-08-05T08:15:15.242Z,97540.97
2022-08-05T08:17:50.600Z,97546.34
2022-08-05T08:20:59.689Z,97538.19
2022-08-05T08:24:01.379Z,97554.13
2022-08-05T08:26:02.447Z,97551.22
2022-08-05T08:28:36.083Z,97555.56
2022-08-05T08:31:18.552Z,97549.81
2022-08-05T08:33:46.871Z,97547.72
2022-08-05T08:36:39.284Z,97549.09
2022-08-05T08:39:06.826Z,97550.91
2022-08-05T08:41:51.824Z,97559.25
2022-08-05T08:45:16.585Z,97558.47
2022-08-05T08:48:07.588Z,97574.44
2022-08-05T08:50:30.092Z,97568.53
2022-08-05T08:53:07.970Z,97567.41
2022-08-05T08:56:04.879Z,97581.03
2022-08-05T08:58:43.285Z,97563.31
2022-08-05T09:01:17.191Z,97584.38
2022-08-05T09:03:55.509Z,97578.22
2022-08-05T09:06:29.226Z,97578.19
2022-08-05T09:09:02.088Z,97574.22
2022-08-05T09:11:52.889Z,97573.22
2022-08-05T09:14:56.507Z,97574.53
2022-08-05T09:17:39.937Z,97574.97
2022-08-05T09:20:08.368Z,97572.47
2022-08-05T09:23:19.881Z,97571.47
2022-08-05T09:26:06.550Z,97571.59
2022-08-05T09:28:38.450Z,97567.41
2022-08-05T09:32:38.847Z,97566.53
2022-08-05T09:34:02.697Z,97568.22
2022-08-05T09:36:53.879Z,97577.34
2022-08-05T09:39:41.332Z,97580.09
2022-08-05T09:42:17.408Z,97569.41
2022-08-05T09:44:56.063Z,97569.78
2022-08-05T09:47:34.928Z,97564.34
2022-08-05T09:50:03.801Z,97563.53
2022-08-05T09:52:36.049Z,97558.56
2022-08-05T09:55:56.992Z,97560.13
2022-08-05T09:57:58.634Z,97559.16
2022-08-05T10:00:27.578Z,97550.22
2022-08-05T10:02:58.628Z,97547.91
2022-08-05T10:05:29.350Z,97557.47
2022-08-05T10:08:10.649Z,97546.00
2022-08-05T10:10:54.354Z,97548.66
2022-08-05T10:13:45.515Z,97542.25
2022-08-05T10:16:37.571Z,97528.88
2022-08-05T10:19:09.995Z,97532.94
2022-08-05T10:21:40.223Z,97532.66
2022-08-05T10:24:11.132Z,97524.28
2022-08-05T10:26:49.205Z,97518.00
2022-08-05T10:29:23.562Z,97521.91
2022-08-05T10:32:54.429Z,97515.25
2022-08-05T10:34:41.689Z,97516.41
2022-08-05T10:37:12.451Z,97509.19
2022-08-05T10:39:59.153Z,97517.09
2022-08-05T10:42:38.345Z,97517.16
2022-08-05T10:45:23.822Z,97516.66
2022-08-05T10:48:56.569Z,97516.19
2022-08-05T10:51:29.047Z,97525.41
2022-08-05T10:54:01.850Z,97514.09
2022-08-05T10:56:53.107Z,97511.13
2022-08-05T11:00:04.464Z,97509.25
2022-08-05T11:02:37.516Z,97503.59
2022-08-05T11:05:10.516Z,97492.56
2022-08-05T11:08:02.967Z,97487.44
2022-08-05T11:10:38.605Z,97502.00
2022-08-05T11:13:54.804Z,97483.66
2022-08-05T11:16:47.374Z,97468.50
2022-08-05T11:20:17.073Z,97481.50
2022-08-05T11:22:49.882Z,97482.28
2022-08-05T11:26:05.070Z,97479.88
2022-08-05T11:28:30.775Z,97475.75
2022-08-05T11:31:06.627Z,97486.88
2022-08-05T11:33:48.863Z,97488.50
2022-08-05T11:36:34.698Z,97477.31
2022-08-05T11:39:08.468Z,97492.16
2022-08-05T11:42:00.939Z,97485.06
2022-08-05T11:44:41.270Z,97483.38
2022-08-05T11:47:17.372Z,97486.81
2022-08-05T11:49:49.865Z,97480.53
2022-08-05T11:52:29.176Z,97475.59
2022-08-05T11:54:58.715Z,97470.09
2022-08-05T11:58:08.351Z,97476.47
2022-08-05T12:00:31.194Z,97471.50
2022-08-05T12:02:58.165Z,97483.16
2022-08-05T12:05:36.125Z,97482.91
2022-08-05T12:08:10.150Z,97484.53
2022-08-05T12:10:45.074Z,97484.97
2022-08-05T12:13:27.924Z,97490.06
2022-08-05T12:16:18.447Z,97488.63
2022-08-05T12:18:52.377Z,97483.59
2022-08-05T12:21:39.177Z,97478.16
2022-08-05T12:24:14.157Z,97476.56
2022-08-05T12:26:51.406Z,97474.47
2022-08-05T12:29:24.543Z,97471.34
2022-08-05T12:31:57.439Z,97461.47
2022-08-05T12:34:28.914Z,97456.06
2022-08-05T12:37:10.351Z,97458.09
2022-08-05T12:39:40.970Z,97459.56
2022-08-05T12:42:17.699Z,97459.31
2022-08-05T12:44:45.958Z,97446.03
2022-08-05T12:47:26.919Z,97448.94
2022-08-05T12:50:03.895Z,97459.63
2022-08-05T12:52:39.366Z,97460.00
2022-08-05T12:55:25.847Z,97452.53
2022-08-05T12:58:38.337Z,97449.78
2022-08-05T13:02:00.870Z,97437.19
2022-08-05T13:03:41.645Z,97441.97
2022-08-05T13:06:19.767Z,97446.78
2022-08-05T13:08:50.690Z,97441.91
2022-08-05T13:12:02.228Z,97428.75
2022-08-05T13:14:24.996Z,97433.16
2022-08-05T13:17:16.002Z,97427.81
2022-08-05T13:20:23.201Z,97435.72
2022-08-05T13:22:53.238Z,97439.75
2022-08-05T13:25:22.152Z,97427.63
2022-08-05T13:28:07.825Z,97414.09
2022-08-05T13:30:39.293Z,97415.22
2022-08-05T13:33:06.142Z,97411.09
2022-08-05T13:35:47.464Z,97421.97
2022-08-05T13:38:31.206Z,97423.75
2022-08-05T13:41:03.679Z,97417.69
2022-08-05T13:43:45.035Z,97411.91
2022-08-05T13:46:30.835Z,97405.41
2022-08-05T13:49:04.451Z,97400.53
2022-08-05T13:51:36.666Z,97402.84
2022-08-05T13:54:12.387Z,97397.34
2022-08-05T13:56:45.514Z,97390.16
2022-08-05T13:59:26.832Z,97391.03
2022-08-05T14:01:58.313Z,97386.25
2022-08-05T14:05:00.558Z,97399.97
2022-08-05T14:08:02.652Z,97386.06
2022-08-05T14:10:28.971Z,97392.16
2022-08-05T14:12:58.364Z,97398.59
2022-08-05T14:16:04.532Z,97383.19
2022-08-05T14:18:17.391Z,97378.78
2022-08-05T14:20:48.140Z,97371.56
2022-08-05T14:23:24.763Z,97385.34
2022-08-05T14:25:58.454Z,97377.00
2022-08-05T14:28:28.063Z,97378.09
2022-08-05T14:30:57.381Z,97389.88
2022-08-05T14:33:24.330Z,97383.63
2022-08-05T14:35:54.283Z,97388.97
2022-08-05T14:38:31.987Z,97379.09
2022-08-05T14:41:00.522Z,97382.03
2022-08-05T14:43:57.647Z,97378.69
2022-08-05T14:46:14.089Z,97375.13
2022-08-05T14:48:41.422Z,97380.91
2022-08-05T14:51:08.551Z,97375.50
2022-08-05T14:53:44.099Z,97369.00
2022-08-05T14:56:13.318Z,97378.31
2022-08-05T14:58:47.884Z,97379.41
2022-08-05T15:01:24.492Z,97368.41
2022-08-05T15:04:11.355Z,97361.28
2022-08-05T15:06:39.151Z,97360.22
2022-08-05T15:09:07.550Z,97361.28
2022-08-05T15:11:53.286Z,97362.53
2022-08-05T15:14:35.726Z,97366.28
2022-08-05T15:17:46.550Z,97369.06
2022-08-05T15:19:59.453Z,97367.94
2022-08-05T15:22:27.053Z,97364.59
2022-08-05T15:24:56.595Z,97367.75
2022-08-05T15:27:25.662Z,97363.53
2022-08-05T15:29:54.291Z,97363.72
2022-08-05T15:32:27.441Z,97374.47
2022-08-05T15:34:56.780Z,97378.06
2022-08-05T15:38:32.953Z,97379.78
2022-08-05T15:41:04.617Z,97370.59
2022-08-05T15:43:02.692Z,97369.69
2022-08-05T15:45:38.295Z,97363.63
2022-08-05T15:48:06.964Z,97369.56
2022-08-05T15:50:33.862Z,97371.19
2022-08-05T15:53:04.137Z,97373.25
2022-08-05T15:56:01.789Z,97379.13
2022-08-05T15:58:19.681Z,97388.72
2022-08-05T16:00:50.844Z,97383.91
2022-08-05T16:03:33.821Z,97381.25
2022-08-05T16:06:00.942Z,97384.19
2022-08-05T16:08:30.390Z,97379.34
2022-08-05T16:10:58.334Z,97392.81
2022-08-05T16:13:34.096Z,97397.78
2022-08-05T16:16:03.300Z,97405.19
2022-08-05T16:18:32.750Z,97412.41
2022-08-05T16:21:04.585Z,97410.16
2022-08-05T16:23:53.776Z,97415.25
2022-08-05T16:26:26.271Z,97422.63
2022-08-05T16:28:54.618Z,97424.25
2022-08-05T16:31:21.990Z,97425.88
2022-08-05T16:33:49.622Z,97426.16
2022-08-05T16:36:20.351Z,97428.28
2022-08-05T16:38:54.972Z,97439.63
2022-08-05T16:42:14.979Z,97434.47
2022-08-05T16:44:13.108Z,97429.63
2022-08-05T16:46:41.724Z,97435.03
2022-08-05T16:49:23.407Z,97442.28
2022-08-05T16:51:54.754Z,97435.22
2022-08-05T16:54:28.633Z,97440.56
2022-08-05T16:56:57.213Z,97435.97
2022-08-05T16:59:23.953Z,97430.19
2022-08-05T17:01:54.842Z,97431.97
2022-08-05T17:04:28.193Z,97436.09
2022-08-05T17:07:03.285Z,97436.47
2022-08-05T17:09:38.981Z,97438.19
2022-08-05T17:12:17.830Z,97445.81
2022-08-05T17:14:49.783Z,97446.56
2022-08-05T17:17:16.751Z,97451.56
2022-08-05T17:19:46.644Z,97461.03
2022-08-05T17:22:25.345Z,97470.09
2022-08-05T17:24:57.183Z,97466.72
2022-08-05T17:27:33.746Z,97469.22
2022-08-05T17:30:04.342Z,97463.72
2022-08-05T17:32:34.769Z,97465.19
2022-08-05T17:35:02.679Z,97464.25
2022-08-05T17:37:41.826Z,97465.44
2022-08-05T17:40:16.001Z,97469.50
2022-08-05T17:42:50.976Z,97484.84
2022-08-05T17:45:22.098Z,97496.97
2022-08-05T17:47:54.880Z,97497.31
2022-08-05T17:50:30.509Z,97512.97
2022-08-05T17:53:05.446Z,97510.91
2022-08-05T17:55:37.523Z,97510.50
2022-08-05T17:58:12.590Z,97511.84
2022-08-05T18:00:47.231Z,97519.97
2022-08-05T18:03:56.386Z,97524.53
2022-08-05T18:06:11.987Z,97534.22
2022-08-05T18:08:44.481Z,97538.09
2022-08-05T18:11:24.603Z,97543.59
2022-08-05T18:14:07.165Z,97551.75
2022-08-05T18:16:46.780Z,97552.16
2022-08-05T18:19:18.479Z,97557.63
2022-08-05T18:22:07.291Z,97553.22
2022-08-05T18:24:37.635Z,97566.34
2022-08-05T18:27:12.301Z,97567.75
2022-08-05T18:29:40.277Z,97563.59
2022-08-05T18:32:12.554Z,97565.06
2022-08-05T18:34:42.758Z,97568.69
2022-08-05T18:37:12.124Z,97567.16
2022-08-05T18:40:29.416Z,97582.53
2022-08-05T18:42:26.624Z,97577.75
2022-08-05T18:44:56.298Z,97586.66
2022-08-05T18:47:26.740Z,97588.66
2022-08-05T18:50:13.290Z,97587.91
2022-08-05T18:52:51.138Z,97588.38
2022-08-05T18:55:20.290Z,97602.69
2022-08-05T18:57:52.826Z,97597.19
2022-08-05T19:00:27.047Z,97591.38
2022-08-05T19:02:57.768Z,97595.41
2022-08-05T19:06:12.057Z,97600.84
2022-08-05T19:08:18.878Z,97600.09
2022-08-05T19:10:45.755Z,97599.94
2022-08-05T19:13:15.958Z,97610.97
2022-08-05T19:15:58.659Z,97614.75
2022-08-05T19:18:28.644Z,97622.88
2022-08-05T19:20:55.929Z,97625.97
2022-08-05T19:24:07.921Z,97631.41
2022-08-05T19:26:11.365Z,97629.19
2022-08-05T19:28:43.145Z,97637.66
2022-08-05T19:31:13.141Z,97648.53
2022-08-05T19:36:25.754Z,97652.34
2022-08-05T19:39:00.602Z,97653.59
2022-08-05T19:41:58.149Z,97659.56
2022-08-05T19:44:15.640Z,97673.00
2022-08-05T19:46:43.565Z,97669.34
2022-08-05T19:49:16.387Z,97674.97
2022-08-05T19:52:04.896Z,97675.47
2022-08-05T19:54:31.909Z,97671.44
2022-08-05T19:56:59.910Z,97680.56
2022-08-05T19:59:59.533Z,97675.28
2022-08-05T20:02:18.143Z,97672.84
2022-08-05T20:04:46.462Z,97683.56
2022-08-05T20:07:15.935Z,97686.31
2022-08-05T20:10:11.795Z,97681.00
2022-08-05T20:12:48.135Z,97679.41
2022-08-05T20:15:48.140Z,97677.59
2022-08-05T20:18:10.368Z,97686.66
2022-08-05T20:20:57.830Z,97697.84
2022-08-05T20:23:44.502Z,97695.66
2022-08-05T20:26:17.326Z,97720.56
2022-08-05T20:28:53.954Z,97704.84
2022-08-05T20:31:36.845Z,97706.69
2022-08-05T20:34:10.745Z,97713.28
2022-08-05T20:36:42.990Z,97722.28
2022-08-05T20:39:13.109Z,97724.38
2022-08-05T20:41:44.290Z,97726.22
2022-08-05T20:44:17.483Z,97735.03
2022-08-05T20:46:47.661Z,97739.94
2022-08-05T20:49:14.938Z,97734.41
2022-08-05T20:51:53.341Z,97745.84
2022-08-05T20:54:20.823Z,97758.34
2022-08-05T20:56:47.661Z,97764.66
2022-08-05T20:59:19.337Z,97768.75
2022-08-05T21:01:56.170Z,97777.50
2022-08-05T21:04:26.923Z,97802.63
2022-08-05T21:06:54.853Z,97813.44
2022-08-05T21:09:22.731Z,97819.56
2022-08-05T21:12:07.389Z,97838.72
2022-08-05T21:14:38.154Z,97864.66
2022-08-05T21:17:06.054Z,97872.44
2022-08-05T21:19:47.331Z,97868.91
2022-08-05T21:22:21.954Z,97860.91
2022-08-05T21:24:52.392Z,97832.03
2022-08-05T21:27:24.603Z,97821.94
2022-08-05T21:29:53.996Z,97830.25
2022-08-05T21:32:27.807Z,97837.53
2022-08-05T21:35:16.806Z,97834.19
2022-08-05T21:37:47.022Z,97824.09
2022-08-05T21:40:14.561Z,97832.00
2022-08-05T21:42:44.783Z,97847.28
2022-08-05T21:45:24.569Z,97872.91
2022-08-05T21:48:06.554Z,97868.13
2022-08-05T21:50:36.727Z,97862.75
2022-08-05T21:53:17.409Z,97866.78
2022-08-05T21:56:04.428Z,97831.63
2022-08-05T21:58:32.427Z,97825.78
2022-08-05T22:00:59.871Z,97875.00
2022-08-05T22:03:52.560Z,97893.22
2022-08-05T22:06:22.901Z,97915.84
2022-08-05T22:09:02.117Z,97917.69
2022-08-05T22:11:41.030Z,97897.59
2022-08-05T22:14:34.387Z,97890.53
2022-08-05T22:16:56.913Z,97887.25
2022-08-05T22:20:00.614Z,97898.59
2022-08-05T22:22:12.993Z,97944.94
2022-08-05T22:25:00.978Z,97925.31
2022-08-05T22:28:10.455Z,97906.22
2022-08-05T22:30:32.131Z,97898.53
2022-08-05T22:32:59.506Z,97924.75
2022-08-05T22:35:26.381Z,97960.53
2022-08-05T22:37:59.687Z,97982.47
2022-08-05T22:40:28.099Z,97974.78
2022-08-05T22:42:58.460Z,97953.72
2022-08-05T22:45:26.433Z,97958.47
2022-08-05T22:47:55.430Z,97975.16
2022-08-05T22:50:26.592Z,97995.13
2022-08-05T22:52:55.426Z,98004.63
2022-08-05T22:55:24.234Z,98005.47
2022-08-05T22:57:53.979Z,98018.06
2022-08-05T23:00:23.656Z,98023.69
2022-08-05T23:02:53.214Z,98028.00
2022-08-05T23:05:22.552Z,98040.84
2022-08-05T23:07:51.031Z,98039.69
2022-08-05T23:10:20.740Z,98045.47
2022-08-05T23:12:55.004Z,98050.75
2022-08-05T23:15:29.149Z,98065.63
2022-08-05T23:18:02.348Z,98073.56
2022-08-05T23:20:32.570Z,98077.34
2022-08-05T23:23:00.398Z,98088.09
2022-08-05T23:25:52.477Z,98093.72
2022-08-05T23:28:17.469Z,98087.53
2022-08-05T23:30:53.374Z,98074.16
2022-08-05T23:33:26.594Z,98070.06
2022-08-05T23:36:11.173Z,98082.84
2022-08-05T23:38:41.307Z,98086.34
2022-08-05T23:41:09.974Z,98087.03
2022-08-05T23:43:37.378Z,98071.69
2022-08-05T23:46:23.513Z,98057.28
2022-08-05T23:49:00.609Z,98077.28
2022-08-05T23:51:53.940Z,98096.31
2022-08-05T23:54:36.598Z,98089.22
2022-08-05T23:57:06.531Z,98073.22
